createdAt,value
2018-06-28T00:00:32.804Z,17.10
2018-06-28T00:03:02.112Z,17.10
2018-06-28T00:05:31.548Z,17.10
2018-06-28T00:08:00.812Z,17.00
2018-06-28T00:10:30.131Z,17.10
2018-06-28T00:12:59.456Z,17.10
2018-06-28T00:15:28.763Z,17.10
2018-06-28T00:17:58.134Z,17.00
2018-06-28T00:20:27.432Z,17.00
2018-06-28T00:22:56.721Z,17.00
2018-06-28T00:25:26.589Z,16.90
2018-06-28T00:27:56.140Z,16.90
2018-06-28T00:30:25.712Z,16.90
2018-06-28T00:32:55.412Z,16.90
2018-06-28T00:35:24.885Z,16.90
2018-06-28T00:37:54.316Z,17.00
2018-06-28T00:40:23.594Z,17.00
2018-06-28T00:42:52.940Z,17.00
2018-06-28T00:45:22.252Z,16.90
2018-06-28T00:47:51.560Z,16.90
2018-06-28T00:50:20.868Z,16.90
2018-06-28T00:52:50.179Z,16.80
2018-06-28T00:55:19.589Z,16.70
2018-06-28T00:57:49.140Z,16.70
2018-06-28T01:00:18.627Z,16.60
2018-06-28T01:02:48.236Z,16.60
2018-06-28T01:05:17.580Z,16.60
2018-06-28T01:07:46.915Z,16.60
2018-06-28T01:10:16.247Z,16.50
2018-06-28T01:12:45.602Z,16.50
2018-06-28T01:15:14.924Z,16.50
2018-06-28T01:17:44.291Z,16.50
2018-06-28T01:20:13.639Z,16.50
2018-06-28T01:22:42.976Z,16.40
2018-06-28T01:25:12.316Z,16.40
2018-06-28T01:27:41.617Z,16.40
2018-06-28T01:30:11.070Z,16.40
2018-06-28T01:32:40.605Z,16.40
2018-06-28T01:35:09.895Z,16.40
2018-06-28T01:37:39.323Z,16.30
2018-06-28T01:40:08.603Z,16.40
2018-06-28T01:42:54.857Z,16.30
2018-06-28T01:45:24.330Z,16.30
2018-06-28T01:47:53.825Z,16.30
2018-06-28T01:50:23.271Z,16.20
2018-06-28T01:52:52.918Z,16.20
2018-06-28T01:55:22.380Z,16.20
2018-06-28T01:57:51.716Z,16.10
2018-06-28T02:00:21.048Z,16.10
2018-06-28T02:02:50.432Z,16.00
2018-06-28T02:05:19.724Z,16.00
2018-06-28T02:07:49.152Z,15.90
2018-06-28T02:10:18.625Z,15.90
2018-06-28T02:12:48.270Z,15.80
2018-06-28T02:15:17.792Z,15.80
2018-06-28T02:17:47.372Z,15.80
2018-06-28T02:20:16.716Z,15.80
2018-06-28T02:22:46.029Z,15.80
2018-06-28T02:25:15.415Z,15.80
2018-06-28T02:27:44.704Z,15.80
2018-06-28T02:30:14.017Z,15.80
2018-06-28T02:32:43.319Z,15.80
2018-06-28T02:35:12.629Z,15.80
2018-06-28T02:37:41.965Z,15.80
2018-06-28T02:40:11.272Z,15.80
2018-06-28T02:42:40.641Z,15.80
2018-06-28T02:45:09.980Z,15.80
2018-06-28T02:47:39.260Z,15.90
2018-06-28T02:50:08.644Z,15.80
2018-06-28T02:52:37.968Z,15.80
2018-06-28T02:55:07.331Z,15.80
2018-06-28T02:57:36.696Z,15.80
2018-06-28T03:00:06.463Z,15.80
2018-06-28T03:02:35.778Z,15.80
2018-06-28T03:05:05.160Z,15.80
2018-06-28T03:07:34.421Z,15.80
2018-06-28T03:10:03.819Z,15.80
2018-06-28T03:12:33.174Z,15.80
2018-06-28T03:15:02.520Z,15.80
2018-06-28T03:17:31.840Z,15.80
2018-06-28T03:20:01.217Z,15.80
2018-06-28T03:22:30.545Z,15.80
2018-06-28T03:24:59.845Z,15.70
2018-06-28T03:27:29.129Z,15.70
2018-06-28T03:29:58.445Z,15.60
2018-06-28T03:32:27.741Z,15.60
2018-06-28T03:34:57.081Z,15.60
2018-06-28T03:37:26.357Z,15.50
2018-06-28T03:39:55.691Z,15.50
2018-06-28T03:42:24.952Z,15.50
2018-06-28T03:44:54.306Z,15.50
2018-06-28T03:47:23.669Z,15.40
2018-06-28T03:49:52.995Z,15.40
2018-06-28T03:52:22.316Z,15.40
2018-06-28T03:54:51.625Z,15.40
2018-06-28T03:57:20.950Z,15.50
2018-06-28T03:59:50.331Z,15.40
2018-06-28T04:02:19.781Z,15.50
2018-06-28T04:04:49.117Z,15.50
2018-06-28T04:07:18.421Z,15.40
2018-06-28T04:09:47.825Z,15.40
2018-06-28T04:12:17.132Z,15.40
2018-06-28T04:14:46.428Z,15.40
2018-06-28T04:17:15.752Z,15.40
2018-06-28T04:19:45.061Z,15.50
2018-06-28T04:22:18.592Z,15.50
2018-06-28T04:24:47.870Z,15.50
2018-06-28T04:27:17.209Z,15.50
2018-06-28T04:29:46.540Z,15.50
2018-06-28T04:32:16.018Z,15.60
2018-06-28T04:34:45.308Z,15.60
2018-06-28T04:37:14.676Z,15.60
2018-06-28T04:39:43.988Z,15.70
2018-06-28T04:42:13.355Z,15.70
2018-06-28T04:44:42.656Z,15.80
2018-06-28T04:47:11.976Z,15.80
2018-06-28T04:49:41.268Z,15.90
2018-06-28T04:52:10.621Z,16.00
2018-06-28T04:54:39.905Z,16.00
2018-06-28T04:57:09.253Z,16.10
2018-06-28T04:59:38.562Z,16.10
2018-06-28T05:02:07.892Z,16.10
2018-06-28T05:04:37.187Z,16.10
2018-06-28T05:07:06.548Z,16.10
2018-06-28T05:09:35.809Z,16.10
2018-06-28T05:12:05.177Z,16.20
2018-06-28T05:14:34.492Z,16.20
2018-06-28T05:17:03.909Z,16.20
2018-06-28T05:19:33.245Z,16.30
2018-06-28T05:22:02.608Z,16.30
2018-06-28T05:24:31.987Z,16.30
2018-06-28T05:27:01.313Z,16.40
2018-06-28T05:29:30.590Z,16.30
2018-06-28T05:31:59.909Z,16.40
2018-06-28T05:34:29.189Z,16.50
2018-06-28T05:36:58.540Z,16.50
2018-06-28T05:39:27.956Z,16.60
2018-06-28T05:41:57.253Z,16.70
2018-06-28T05:44:26.677Z,16.80
2018-06-28T05:46:56.197Z,16.80
2018-06-28T05:49:25.546Z,16.90
2018-06-28T05:51:54.935Z,17.00
2018-06-28T05:54:24.216Z,17.10
2018-06-28T05:56:53.529Z,17.10
2018-06-28T05:59:22.832Z,17.20
2018-06-28T06:01:52.315Z,17.30
2018-06-28T06:04:21.654Z,17.40
2018-06-28T06:06:51.038Z,17.50
2018-06-28T06:09:20.338Z,17.60
2018-06-28T06:11:50.116Z,17.70
2018-06-28T06:14:19.648Z,17.80
2018-06-28T06:16:49.236Z,17.90
2018-06-28T06:19:18.860Z,18.00
2018-06-28T06:21:48.396Z,18.00
2018-06-28T06:24:18.012Z,18.20
2018-06-28T06:26:47.604Z,18.20
2018-06-28T06:29:17.993Z,18.40
2018-06-28T06:31:48.654Z,18.40
2018-06-28T06:34:18.254Z,18.50
2018-06-28T06:36:48.197Z,18.60
2018-06-28T06:39:17.520Z,18.80
2018-06-28T06:41:46.855Z,18.80
2018-06-28T06:44:16.182Z,19.00
2018-06-28T06:46:45.525Z,19.10
2018-06-28T06:49:14.863Z,19.10
2018-06-28T06:51:44.258Z,19.20
2018-06-28T06:54:13.872Z,19.30
2018-06-28T06:56:43.434Z,19.40
2018-06-28T06:59:12.949Z,19.50
2018-06-28T07:01:42.469Z,19.60
2018-06-28T07:04:11.957Z,19.60
2018-06-28T07:06:41.535Z,19.70
2018-06-28T07:09:12.616Z,19.70
2018-06-28T07:11:42.276Z,19.70
2018-06-28T07:14:12.188Z,19.80
2018-06-28T07:16:41.749Z,19.90
2018-06-28T07:19:11.240Z,20.00
2018-06-28T07:21:40.810Z,20.10
2018-06-28T07:24:10.183Z,20.10
2018-06-28T07:26:39.529Z,20.10
2018-06-28T07:29:08.838Z,20.20
2018-06-28T07:31:38.160Z,20.20
2018-06-28T07:34:07.561Z,20.30
2018-06-28T07:36:36.872Z,20.40
2018-06-28T07:39:08.957Z,20.40
2018-06-28T07:41:38.532Z,20.50
2018-06-28T07:44:08.033Z,20.60
2018-06-28T07:46:37.441Z,20.60
2018-06-28T07:49:06.799Z,20.60
2018-06-28T07:51:36.108Z,20.70
2018-06-28T07:54:05.448Z,20.90
2018-06-28T07:56:34.917Z,20.90
2018-06-28T07:59:04.503Z,20.90
2018-06-28T08:01:34.082Z,21.00
2018-06-28T08:04:03.705Z,21.10
2018-06-28T08:06:33.189Z,21.20
2018-06-28T08:09:02.779Z,21.30
2018-06-28T08:11:32.335Z,21.30
2018-06-28T08:14:01.861Z,21.20
2018-06-28T08:16:31.394Z,21.10
2018-06-28T08:19:01.205Z,21.10
2018-06-28T08:21:30.889Z,21.20
2018-06-28T08:24:00.336Z,21.30
2018-06-28T08:26:29.654Z,21.30
2018-06-28T08:28:59.020Z,21.40
2018-06-28T08:31:28.399Z,21.50
2018-06-28T08:33:57.696Z,21.50
2018-06-28T08:36:27.069Z,21.50
2018-06-28T08:38:56.414Z,21.50
2018-06-28T08:41:25.799Z,21.50
2018-06-28T08:43:55.337Z,21.60
2018-06-28T08:46:24.971Z,21.60
2018-06-28T08:48:54.514Z,21.70
2018-06-28T08:51:24.041Z,21.70
2018-06-28T08:53:53.525Z,21.80
2018-06-28T08:56:23.049Z,22.00
2018-06-28T08:58:52.625Z,22.10
2018-06-28T09:01:22.192Z,22.20
2018-06-28T09:03:51.754Z,22.20
2018-06-28T09:06:21.080Z,22.30
2018-06-28T09:08:50.385Z,22.50
2018-06-28T09:11:19.745Z,22.60
2018-06-28T09:13:49.024Z,22.80
2018-06-28T09:16:18.445Z,23.00
2018-06-28T09:18:47.784Z,23.10
2018-06-28T09:21:17.101Z,23.00
2018-06-28T09:23:46.411Z,23.00
2018-06-28T09:26:15.757Z,22.90
2018-06-28T09:28:45.066Z,22.90
2018-06-28T09:31:14.403Z,23.00
2018-06-28T09:33:43.710Z,23.20
2018-06-28T09:36:13.049Z,23.40
2018-06-28T09:38:42.377Z,23.30
2018-06-28T09:41:11.699Z,23.30
2018-06-28T09:43:40.999Z,23.40
2018-06-28T09:46:10.468Z,23.50
2018-06-28T09:48:39.846Z,23.60
2018-06-28T09:51:09.120Z,23.70
2018-06-28T09:53:38.424Z,23.70
2018-06-28T09:56:08.056Z,23.90
2018-06-28T09:58:37.444Z,24.00
2018-06-28T10:01:07.412Z,24.10
2018-06-28T10:03:36.865Z,24.30
2018-06-28T10:06:06.464Z,24.20
2018-06-28T10:08:36.029Z,24.20
2018-06-28T10:11:05.544Z,24.20
2018-06-28T10:13:35.015Z,24.20
2018-06-28T10:16:04.764Z,24.20
2018-06-28T10:18:34.325Z,24.20
2018-06-28T10:21:03.866Z,24.30
2018-06-28T10:23:33.412Z,24.30
2018-06-28T10:26:02.721Z,24.50
2018-06-28T10:28:32.042Z,24.60
2018-06-28T10:31:01.344Z,24.50
2018-06-28T10:33:30.753Z,24.60
2018-06-28T10:36:00.057Z,24.70
2018-06-28T10:38:29.369Z,24.80
2018-06-28T10:40:58.729Z,24.60
2018-06-28T10:43:28.013Z,24.50
2018-06-28T10:45:58.534Z,24.30
2018-06-28T10:48:28.190Z,24.20
2018-06-28T10:50:57.727Z,24.30
2018-06-28T10:53:27.367Z,24.40
2018-06-28T10:55:56.676Z,24.60
2018-06-28T10:58:26.038Z,24.80
2018-06-28T11:00:55.334Z,24.90
2018-06-28T11:03:24.725Z,25.00
2018-06-28T11:05:54.016Z,24.90
2018-06-28T11:08:23.382Z,24.90
2018-06-28T11:10:52.693Z,24.90
2018-06-28T11:13:22.092Z,24.90
2018-06-28T11:15:51.373Z,24.90
2018-06-28T11:18:20.768Z,25.00
2018-06-28T11:20:50.089Z,24.90
2018-06-28T11:23:19.460Z,25.00
2018-06-28T11:25:48.762Z,24.90
2018-06-28T11:28:18.085Z,24.80
2018-06-28T11:30:47.400Z,24.90
2018-06-28T11:33:16.713Z,25.00
2018-06-28T11:35:45.976Z,25.10
2018-06-28T11:38:15.340Z,25.20
2018-06-28T11:40:44.684Z,25.30
2018-06-28T11:43:14.009Z,25.40
2018-06-28T11:45:43.343Z,25.40
2018-06-28T11:48:12.672Z,25.30
2018-06-28T11:50:41.980Z,25.30
2018-06-28T11:53:11.315Z,25.40
2018-06-28T11:55:40.575Z,25.50
2018-06-28T11:58:09.891Z,25.40
2018-06-28T12:00:39.213Z,25.40
2018-06-28T12:03:08.528Z,25.40
2018-06-28T12:05:37.899Z,25.40
2018-06-28T12:08:07.162Z,25.30
2018-06-28T12:10:36.448Z,25.20
2018-06-28T12:13:05.916Z,25.00
2018-06-28T12:15:35.204Z,24.90
2018-06-28T12:18:04.543Z,24.80
2018-06-28T12:20:33.856Z,24.80
2018-06-28T12:23:03.153Z,25.10
2018-06-28T12:25:32.632Z,25.30
2018-06-28T12:28:02.084Z,25.40
2018-06-28T12:30:31.440Z,25.50
2018-06-28T12:33:00.728Z,25.60
2018-06-28T12:35:30.053Z,25.60
2018-06-28T12:37:59.350Z,25.80
2018-06-28T12:40:28.672Z,25.80
2018-06-28T12:42:58.025Z,25.60
2018-06-28T12:45:27.429Z,25.50
2018-06-28T12:48:03.422Z,25.50
2018-06-28T12:50:32.811Z,25.40
2018-06-28T12:53:09.634Z,25.40
2018-06-28T12:56:42.530Z,25.50
2018-06-28T12:59:13.158Z,25.70
2018-06-28T13:01:42.533Z,26.00
2018-06-28T13:04:11.867Z,26.10
2018-06-28T13:06:41.193Z,26.10
2018-06-28T13:09:15.502Z,26.10
2018-06-28T13:11:44.840Z,26.20
2018-06-28T13:14:14.143Z,26.30
2018-06-28T13:16:43.522Z,26.40
2018-06-28T13:19:12.841Z,26.50
2018-06-28T13:21:42.133Z,26.60
2018-06-28T13:24:11.437Z,26.60
2018-06-28T13:26:40.751Z,26.60
2018-06-28T13:29:10.057Z,26.50
2018-06-28T13:31:39.426Z,26.50
2018-06-28T13:34:08.728Z,26.60
2018-06-28T13:36:38.071Z,26.60
2018-06-28T13:39:07.530Z,26.60
2018-06-28T13:41:37.181Z,26.60
2018-06-28T13:44:06.228Z,26.50
2018-06-28T13:46:35.567Z,26.40
2018-06-28T13:49:05.106Z,26.50
2018-06-28T13:51:34.444Z,26.70
2018-06-28T13:54:03.811Z,26.90
2018-06-28T13:56:33.181Z,27.00
2018-06-28T13:59:02.502Z,27.20
2018-06-28T14:01:31.841Z,27.10
2018-06-28T14:04:01.171Z,27.10
2018-06-28T14:06:30.474Z,27.20
2018-06-28T14:08:59.761Z,27.30
2018-06-28T14:11:29.044Z,27.30
2018-06-28T14:13:58.423Z,27.20
2018-06-28T14:16:27.752Z,27.20
2018-06-28T14:18:57.076Z,27.00
2018-06-28T14:21:26.375Z,27.20
2018-06-28T14:23:55.677Z,27.30
2018-06-28T14:26:25.048Z,27.50
2018-06-28T14:28:54.389Z,27.50
2018-06-28T14:31:26.476Z,27.50
2018-06-28T14:33:55.852Z,27.60
2018-06-28T14:36:25.256Z,27.80
2018-06-28T14:38:54.588Z,27.90
2018-06-28T14:41:23.900Z,28.00
2018-06-28T14:43:53.251Z,28.10
2018-06-28T14:46:22.561Z,28.20
2018-06-28T14:48:51.917Z,28.30
2018-06-28T14:51:21.196Z,28.30
2018-06-28T14:53:50.532Z,28.30
2018-06-28T14:56:19.830Z,28.30
2018-06-28T14:58:49.180Z,28.40
2018-06-28T15:01:18.526Z,28.30
2018-06-28T15:03:47.849Z,28.20
2018-06-28T15:06:17.140Z,28.20
2018-06-28T15:08:46.469Z,28.20
2018-06-28T15:11:22.117Z,28.30
2018-06-28T15:13:51.436Z,28.30
2018-06-28T15:16:20.727Z,28.40
2018-06-28T15:18:50.080Z,28.50
2018-06-28T15:21:19.456Z,28.50
2018-06-28T15:23:48.732Z,28.40
2018-06-28T15:26:18.026Z,28.40
2018-06-28T15:28:47.356Z,28.50
2018-06-28T15:31:16.685Z,28.60
2018-06-28T15:33:46.372Z,28.60
2018-06-28T15:36:15.737Z,28.50
2018-06-28T15:38:45.183Z,28.30
2018-06-28T15:41:14.644Z,28.30
2018-06-28T15:43:44.139Z,28.30
2018-06-28T15:46:13.639Z,28.30
2018-06-28T15:48:42.956Z,28.40
2018-06-28T15:51:12.285Z,28.50
2018-06-28T15:53:41.632Z,28.60
2018-06-28T15:56:10.997Z,28.60
2018-06-28T15:58:40.357Z,28.60
2018-06-28T16:01:09.669Z,28.50
2018-06-28T16:03:38.965Z,28.50
2018-06-28T16:06:08.296Z,28.60
2018-06-28T16:08:37.588Z,28.50
2018-06-28T16:11:07.093Z,28.20
2018-06-28T16:13:36.344Z,27.80
2018-06-28T16:16:05.884Z,27.70
2018-06-28T16:18:35.372Z,27.50
2018-06-28T16:21:04.762Z,27.50
2018-06-28T16:23:34.256Z,27.70
2018-06-28T16:26:03.637Z,27.70
2018-06-28T16:28:33.173Z,27.70
2018-06-28T16:31:02.480Z,27.60
2018-06-28T16:33:31.795Z,27.60
2018-06-28T16:36:01.108Z,27.70
2018-06-28T16:38:30.399Z,27.80
2018-06-28T16:40:59.956Z,27.90
2018-06-28T16:43:29.279Z,28.00
2018-06-28T16:45:58.630Z,27.90
2018-06-28T16:48:27.968Z,27.90
2018-06-28T16:50:57.297Z,28.00
2018-06-28T16:53:26.576Z,28.00
2018-06-28T16:55:55.928Z,27.90
2018-06-28T16:58:25.218Z,27.90
2018-06-28T17:00:54.545Z,28.00
2018-06-28T17:03:23.847Z,28.10
2018-06-28T17:05:53.165Z,28.10
2018-06-28T17:08:22.468Z,28.10
2018-06-28T17:10:51.777Z,28.20
2018-06-28T17:13:21.070Z,28.30
2018-06-28T17:15:50.410Z,28.40
2018-06-28T17:18:19.762Z,28.30
2018-06-28T17:20:49.109Z,28.30
2018-06-28T17:23:18.426Z,28.20
2018-06-28T17:25:47.797Z,28.20
2018-06-28T17:28:17.299Z,28.20
2018-06-28T17:30:46.621Z,28.10
2018-06-28T17:33:15.929Z,28.00
2018-06-28T17:35:45.423Z,27.90
2018-06-28T17:38:15.036Z,27.50
2018-06-28T17:40:44.661Z,27.40
2018-06-28T17:43:14.293Z,27.20
2018-06-28T17:45:43.853Z,27.00
2018-06-28T17:48:13.178Z,26.90
2018-06-28T17:50:42.597Z,26.80
2018-06-28T17:53:11.885Z,26.70
2018-06-28T17:55:41.228Z,26.60
2018-06-28T17:58:10.532Z,26.60
2018-06-28T18:00:39.855Z,26.60
2018-06-28T18:03:09.185Z,26.60
2018-06-28T18:05:38.480Z,26.70
2018-06-28T18:08:07.906Z,26.70
2018-06-28T18:10:37.179Z,26.70
2018-06-28T18:13:06.590Z,26.80
2018-06-28T18:15:36.005Z,26.80
2018-06-28T18:18:05.388Z,26.80
2018-06-28T18:20:34.847Z,26.80
2018-06-28T18:23:04.289Z,26.70
2018-06-28T18:25:33.656Z,26.60
2018-06-28T18:28:03.020Z,26.60
2018-06-28T18:30:32.394Z,26.40
2018-06-28T18:33:01.748Z,26.30
2018-06-28T18:35:31.104Z,26.20
2018-06-28T18:38:00.530Z,26.00
2018-06-28T18:40:29.816Z,25.80
2018-06-28T18:42:59.135Z,25.70
2018-06-28T18:45:28.424Z,25.60
2018-06-28T18:47:57.763Z,25.50
2018-06-28T18:50:27.358Z,25.40
2018-06-28T18:52:56.790Z,25.30
2018-06-28T18:55:26.312Z,25.20
2018-06-28T18:57:55.639Z,25.10
2018-06-28T19:00:24.920Z,25.00
2018-06-28T19:02:54.219Z,24.90
2018-06-28T19:05:23.500Z,24.80
2018-06-28T19:07:52.852Z,24.70
2018-06-28T19:10:28.486Z,24.60
2018-06-28T19:12:57.839Z,24.50
2018-06-28T19:15:32.400Z,24.50
2018-06-28T19:18:02.080Z,24.40
2018-06-28T19:20:31.675Z,24.30
2018-06-28T19:23:06.247Z,24.30
2018-06-28T19:25:35.543Z,24.20
2018-06-28T19:28:04.859Z,24.10
2018-06-28T19:30:39.324Z,24.00
2018-06-28T19:33:08.654Z,23.90
2018-06-28T19:35:37.962Z,23.80
2018-06-28T19:38:07.333Z,23.70
2018-06-28T19:40:41.941Z,23.50
2018-06-28T19:43:11.263Z,23.40
2018-06-28T19:45:40.599Z,23.30
2018-06-28T19:48:09.940Z,23.20
2018-06-28T19:50:44.343Z,23.10
2018-06-28T19:53:14.913Z,23.00
2018-06-28T19:55:44.216Z,22.80
2018-06-28T19:58:13.545Z,22.70
2018-06-28T20:00:48.177Z,22.60
2018-06-28T20:03:22.880Z,22.50
2018-06-28T20:05:52.163Z,22.40
2018-06-28T20:08:21.493Z,22.30
2018-06-28T20:10:50.896Z,22.20
2018-06-28T20:13:25.625Z,22.10
2018-06-28T20:16:00.391Z,22.10
2018-06-28T20:18:34.935Z,22.10
2018-06-28T20:21:04.339Z,22.10
2018-06-28T20:23:33.821Z,22.00
2018-06-28T20:26:08.188Z,21.90
2018-06-28T20:28:42.866Z,21.90
2018-06-28T20:31:17.392Z,21.70
2018-06-28T20:33:52.101Z,21.60
2018-06-28T20:36:21.428Z,21.50
2018-06-28T20:38:50.751Z,21.50
2018-06-28T20:41:20.046Z,21.40
2018-06-28T20:43:49.409Z,21.40
2018-06-28T20:46:18.748Z,21.30
2018-06-28T20:48:48.049Z,21.30
2018-06-28T20:51:17.380Z,21.20
2018-06-28T20:53:46.687Z,21.20
2018-06-28T20:56:15.985Z,21.20
2018-06-28T20:58:46.467Z,21.10
2018-06-28T21:01:15.786Z,21.00
2018-06-28T21:03:45.264Z,21.00
2018-06-28T21:06:14.544Z,20.90
2018-06-28T21:08:43.883Z,20.90
2018-06-28T21:11:13.221Z,20.90
2018-06-28T21:13:42.511Z,20.90
2018-06-28T21:16:11.831Z,20.80
2018-06-28T21:18:41.163Z,20.70
2018-06-28T21:21:10.500Z,20.60
2018-06-28T21:23:39.975Z,20.60
2018-06-28T21:26:09.516Z,20.50
2018-06-28T21:28:39.042Z,20.50
2018-06-28T21:31:08.352Z,20.40
2018-06-28T21:33:37.626Z,20.30
2018-06-28T21:36:07.042Z,20.30
2018-06-28T21:38:36.346Z,20.20
2018-06-28T21:41:06.005Z,20.10
2018-06-28T21:43:35.284Z,20.00
2018-06-28T21:46:04.891Z,19.90
2018-06-28T21:48:34.364Z,19.90
2018-06-28T21:51:03.987Z,19.90
2018-06-28T21:53:33.276Z,19.80
2018-06-28T21:56:02.716Z,19.90
2018-06-28T21:58:32.045Z,19.90
2018-06-28T22:01:01.380Z,19.90
2018-06-28T22:03:30.705Z,19.90
2018-06-28T22:06:00.028Z,19.80
2018-06-28T22:08:29.293Z,19.90
2018-06-28T22:10:58.619Z,19.80
2018-06-28T22:13:27.884Z,19.80
2018-06-28T22:15:57.255Z,19.80
2018-06-28T22:18:26.618Z,19.80
2018-06-28T22:20:55.962Z,19.80
2018-06-28T22:23:25.261Z,19.80
2018-06-28T22:25:54.624Z,19.80
2018-06-28T22:28:23.908Z,19.80
2018-06-28T22:30:53.220Z,19.80
2018-06-28T22:33:22.495Z,19.70
2018-06-28T22:35:51.893Z,19.70
2018-06-28T22:38:21.181Z,19.60
2018-06-28T22:40:50.504Z,19.60
2018-06-28T22:43:19.807Z,19.60
2018-06-28T22:45:49.164Z,19.60
2018-06-28T22:48:18.460Z,19.60
2018-06-28T22:50:47.850Z,19.60
2018-06-28T22:53:17.104Z,19.60
2018-06-28T22:55:46.613Z,19.60
2018-06-28T22:58:15.931Z,19.60
2018-06-28T23:00:45.204Z,19.60
2018-06-28T23:03:14.512Z,19.60
2018-06-28T23:05:43.851Z,19.60
2018-06-28T23:08:13.204Z,19.60
2018-06-28T23:10:42.479Z,19.50
2018-06-28T23:13:11.804Z,19.60
2018-06-28T23:15:41.080Z,19.60
2018-06-28T23:18:10.421Z,19.60
2018-06-28T23:20:39.705Z,19.50
2018-06-28T23:23:09.041Z,19.50
2018-06-28T23:25:38.461Z,19.60
2018-06-28T23:28:08.082Z,19.60
2018-06-28T23:30:37.661Z,19.50
2018-06-28T23:33:07.254Z,19.50
2018-06-28T23:35:36.729Z,19.50
2018-06-28T23:38:06.526Z,19.50
2018-06-28T23:40:35.860Z,19.50
2018-06-28T23:43:05.244Z,19.50
2018-06-28T23:45:34.564Z,19.50
2018-06-28T23:48:03.942Z,19.50
2018-06-28T23:50:33.208Z,19.50
2018-06-28T23:53:02.551Z,19.60
2018-06-28T23:55:31.838Z,19.60
2018-06-28T23:58:01.200Z,19.70
